sensor_id;sensor_type;location;lat;lon;timestamp;P1;durP1;ratioP1;P2;durP2;ratioP2
10281;SDS011;5186;59.472;18.048;2022-12-10T00:01:25;5.93;;;4.30;;
10281;SDS011;5186;59.472;18.048;2022-12-10T00:03:52;6.47;;;4.50;;
10281;SDS011;5186;59.472;18.048;2022-12-10T00:06:19;8.80;;;4.67;;
10281;SDS011;5186;59.472;18.048;2022-12-10T00:08:46;7.60;;;4.70;;
10281;SDS011;5186;59.472;18.048;2022-12-10T00:11:13;8.47;;;4.80;;
10281;SDS011;5186;59.472;18.048;2022-12-10T00:13:40;8.23;;;4.73;;
10281;SDS011;5186;59.472;18.048;2022-12-10T00:16:07;9.57;;;5.00;;
10281;SDS011;5186;59.472;18.048;2022-12-10T00:18:34;8.43;;;4.90;;
10281;SDS011;5186;59.472;18.048;2022-12-10T00:21:04;10.43;;;5.60;;
10281;SDS011;5186;59.472;18.048;2022-12-10T00:23:31;8.73;;;5.23;;
10281;SDS011;5186;59.472;18.048;2022-12-10T00:28:30;9.43;;;5.10;;
10281;SDS011;5186;59.472;18.048;2022-12-10T00:31:01;8.63;;;5.13;;
10281;SDS011;5186;59.472;18.048;2022-12-10T00:33:34;9.67;;;4.50;;
10281;SDS011;5186;59.472;18.048;2022-12-10T00:36:01;10.83;;;5.40;;
10281;SDS011;5186;59.472;18.048;2022-12-10T00:38:31;7.73;;;4.60;;
10281;SDS011;5186;59.472;18.048;2022-12-10T00:40:57;9.53;;;5.00;;
10281;SDS011;5186;59.472;18.048;2022-12-10T00:43:23;9.13;;;4.90;;
10281;SDS011;5186;59.472;18.048;2022-12-10T00:45:48;7.73;;;4.77;;
10281;SDS011;5186;59.472;18.048;2022-12-10T00:48:14;9.90;;;4.93;;
10281;SDS011;5186;59.472;18.048;2022-12-10T00:50:39;7.67;;;4.30;;
10281;SDS011;5186;59.472;18.048;2022-12-10T00:53:05;7.07;;;4.60;;
10281;SDS011;5186;59.472;18.048;2022-12-10T00:55:30;6.77;;;4.60;;
10281;SDS011;5186;59.472;18.048;2022-12-10T00:57:56;8.67;;;5.03;;
10281;SDS011;5186;59.472;18.048;2022-12-10T01:00:21;7.00;;;5.10;;
10281;SDS011;5186;59.472;18.048;2022-12-10T01:02:47;8.13;;;5.43;;
10281;SDS011;5186;59.472;18.048;2022-12-10T01:05:13;7.70;;;4.77;;
10281;SDS011;5186;59.472;18.048;2022-12-10T01:07:38;8.37;;;5.10;;
10281;SDS011;5186;59.472;18.048;2022-12-10T01:10:04;8.67;;;5.17;;
10281;SDS011;5186;59.472;18.048;2022-12-10T01:12:30;10.33;;;5.50;;
10281;SDS011;5186;59.472;18.048;2022-12-10T01:14:55;9.50;;;5.20;;
10281;SDS011;5186;59.472;18.048;2022-12-10T01:17:21;10.57;;;5.30;;
10281;SDS011;5186;59.472;18.048;2022-12-10T01:19:46;9.27;;;5.23;;
10281;SDS011;5186;59.472;18.048;2022-12-10T01:22:12;7.90;;;5.23;;
10281;SDS011;5186;59.472;18.048;2022-12-10T01:24:38;9.07;;;5.53;;
10281;SDS011;5186;59.472;18.048;2022-12-10T01:27:04;8.17;;;5.40;;
10281;SDS011;5186;59.472;18.048;2022-12-10T01:29:29;9.20;;;5.10;;
10281;SDS011;5186;59.472;18.048;2022-12-10T01:31:56;9.57;;;5.30;;
10281;SDS011;5186;59.472;18.048;2022-12-10T01:34:22;7.80;;;5.00;;
10281;SDS011;5186;59.472;18.048;2022-12-10T01:36:50;8.07;;;4.60;;
10281;SDS011;5186;59.472;18.048;2022-12-10T01:39:18;7.93;;;4.73;;
10281;SDS011;5186;59.472;18.048;2022-12-10T01:41:54;7.17;;;4.17;;
10281;SDS011;5186;59.472;18.048;2022-12-10T01:46:48;9.97;;;4.50;;
10281;SDS011;5186;59.472;18.048;2022-12-10T01:49:17;7.70;;;4.87;;
10281;SDS011;5186;59.472;18.048;2022-12-10T01:51:48;8.40;;;4.70;;
10281;SDS011;5186;59.472;18.048;2022-12-10T01:54:17;6.90;;;4.27;;
10281;SDS011;5186;59.472;18.048;2022-12-10T01:56:47;8.07;;;4.40;;
10281;SDS011;5186;59.472;18.048;2022-12-10T01:59:19;8.93;;;4.43;;
10281;SDS011;5186;59.472;18.048;2022-12-10T02:01:52;6.10;;;3.80;;
10281;SDS011;5186;59.472;18.048;2022-12-10T02:04:30;6.80;;;3.83;;
10281;SDS011;5186;59.472;18.048;2022-12-10T02:07:44;3.83;;;3.13;;
10281;SDS011;5186;59.472;18.048;2022-12-10T02:14:59;5.87;;;3.63;;
10281;SDS011;5186;59.472;18.048;2022-12-10T02:17:37;6.47;;;3.20;;
10281;SDS011;5186;59.472;18.048;2022-12-10T02:20:15;5.93;;;3.90;;
10281;SDS011;5186;59.472;18.048;2022-12-10T02:22:49;4.83;;;3.30;;
10281;SDS011;5186;59.472;18.048;2022-12-10T02:25:19;5.67;;;3.53;;
10281;SDS011;5186;59.472;18.048;2022-12-10T02:27:49;7.70;;;3.70;;
10281;SDS011;5186;59.472;18.048;2022-12-10T02:30:35;5.13;;;3.70;;
10281;SDS011;5186;59.472;18.048;2022-12-10T02:33:03;7.03;;;4.17;;
10281;SDS011;5186;59.472;18.048;2022-12-10T02:35:31;5.93;;;4.13;;
10281;SDS011;5186;59.472;18.048;2022-12-10T02:38:04;6.07;;;3.70;;
10281;SDS011;5186;59.472;18.048;2022-12-10T02:40:42;6.97;;;4.37;;
10281;SDS011;5186;59.472;18.048;2022-12-10T02:43:12;6.63;;;4.10;;
10281;SDS011;5186;59.472;18.048;2022-12-10T02:45:39;5.93;;;4.30;;
10281;SDS011;5186;59.472;18.048;2022-12-10T02:48:06;5.67;;;3.70;;
10281;SDS011;5186;59.472;18.048;2022-12-10T02:50:33;7.13;;;4.03;;
10281;SDS011;5186;59.472;18.048;2022-12-10T02:52:59;7.00;;;4.77;;
10281;SDS011;5186;59.472;18.048;2022-12-10T02:55:24;7.83;;;4.50;;
10281;SDS011;5186;59.472;18.048;2022-12-10T03:00:58;8.83;;;5.30;;
10281;SDS011;5186;59.472;18.048;2022-12-10T03:03:33;6.70;;;4.40;;
10281;SDS011;5186;59.472;18.048;2022-12-10T03:06:07;6.47;;;4.40;;
10281;SDS011;5186;59.472;18.048;2022-12-10T03:08:39;6.83;;;4.43;;
10281;SDS011;5186;59.472;18.048;2022-12-10T03:11:13;6.17;;;4.27;;
10281;SDS011;5186;59.472;18.048;2022-12-10T03:13:49;7.67;;;4.57;;
10281;SDS011;5186;59.472;18.048;2022-12-10T03:16:22;6.57;;;4.30;;
10281;SDS011;5186;59.472;18.048;2022-12-10T03:18:50;6.47;;;4.37;;
10281;SDS011;5186;59.472;18.048;2022-12-10T03:21:20;4.60;;;3.73;;
10281;SDS011;5186;59.472;18.048;2022-12-10T03:23:47;6.43;;;4.23;;
10281;SDS011;5186;59.472;18.048;2022-12-10T03:26:14;5.80;;;4.00;;
10281;SDS011;5186;59.472;18.048;2022-12-10T03:28:42;6.37;;;4.20;;
10281;SDS011;5186;59.472;18.048;2022-12-10T03:31:17;5.43;;;4.03;;
10281;SDS011;5186;59.472;18.048;2022-12-10T03:33:45;7.50;;;4.07;;
10281;SDS011;5186;59.472;18.048;2022-12-10T03:36:12;5.10;;;4.00;;
10281;SDS011;5186;59.472;18.048;2022-12-10T03:38:38;6.70;;;3.90;;
10281;SDS011;5186;59.472;18.048;2022-12-10T03:41:05;5.53;;;4.40;;
10281;SDS011;5186;59.472;18.048;2022-12-10T03:43:31;6.17;;;4.37;;
10281;SDS011;5186;59.472;18.048;2022-12-10T03:45:57;6.83;;;3.83;;
10281;SDS011;5186;59.472;18.048;2022-12-10T03:48:23;6.13;;;3.83;;
10281;SDS011;5186;59.472;18.048;2022-12-10T03:50:53;4.97;;;3.90;;
10281;SDS011;5186;59.472;18.048;2022-12-10T03:53:19;4.37;;;3.50;;
10281;SDS011;5186;59.472;18.048;2022-12-10T03:55:44;4.90;;;3.50;;
10281;SDS011;5186;59.472;18.048;2022-12-10T03:58:10;6.27;;;3.60;;
10281;SDS011;5186;59.472;18.048;2022-12-10T04:00:35;5.80;;;3.90;;
10281;SDS011;5186;59.472;18.048;2022-12-10T04:03:01;5.00;;;3.87;;
10281;SDS011;5186;59.472;18.048;2022-12-10T04:05:26;5.43;;;3.70;;
10281;SDS011;5186;59.472;18.048;2022-12-10T04:07:52;4.03;;;3.60;;
10281;SDS011;5186;59.472;18.048;2022-12-10T04:10:17;5.13;;;3.43;;
10281;SDS011;5186;59.472;18.048;2022-12-10T04:12:44;4.73;;;3.80;;
10281;SDS011;5186;59.472;18.048;2022-12-10T04:15:29;6.53;;;4.40;;
10281;SDS011;5186;59.472;18.048;2022-12-10T04:18:18;4.93;;;3.30;;
10281;SDS011;5186;59.472;18.048;2022-12-10T04:20:43;3.37;;;2.50;;
10281;SDS011;5186;59.472;18.048;2022-12-10T04:23:44;4.33;;;2.73;;
10281;SDS011;5186;59.472;18.048;2022-12-10T04:26:28;3.57;;;2.67;;
10281;SDS011;5186;59.472;18.048;2022-12-10T04:29:13;3.57;;;2.70;;
10281;SDS011;5186;59.472;18.048;2022-12-10T04:31:38;2.83;;;2.53;;
10281;SDS011;5186;59.472;18.048;2022-12-10T04:34:04;3.10;;;2.57;;
10281;SDS011;5186;59.472;18.048;2022-12-10T04:36:29;3.47;;;2.50;;
10281;SDS011;5186;59.472;18.048;2022-12-10T04:38:55;4.07;;;2.60;;
10281;SDS011;5186;59.472;18.048;2022-12-10T04:41:20;3.33;;;2.47;;
10281;SDS011;5186;59.472;18.048;2022-12-10T04:43:46;3.10;;;2.10;;
10281;SDS011;5186;59.472;18.048;2022-12-10T04:46:11;2.57;;;2.20;;
10281;SDS011;5186;59.472;18.048;2022-12-10T04:48:37;2.70;;;2.20;;
10281;SDS011;5186;59.472;18.048;2022-12-10T04:51:03;3.13;;;2.10;;
10281;SDS011;5186;59.472;18.048;2022-12-10T04:53:29;2.80;;;2.23;;
10281;SDS011;5186;59.472;18.048;2022-12-10T04:55:54;2.53;;;2.20;;
10281;SDS011;5186;59.472;18.048;2022-12-10T04:58:20;3.30;;;2.20;;
10281;SDS011;5186;59.472;18.048;2022-12-10T05:00:45;2.47;;;2.10;;
10281;SDS011;5186;59.472;18.048;2022-12-10T05:03:11;2.50;;;2.10;;
10281;SDS011;5186;59.472;18.048;2022-12-10T05:05:36;2.67;;;1.90;;
10281;SDS011;5186;59.472;18.048;2022-12-10T05:08:02;2.33;;;2.13;;
10281;SDS011;5186;59.472;18.048;2022-12-10T05:10:29;3.50;;;2.30;;
10281;SDS011;5186;59.472;18.048;2022-12-10T05:12:55;2.97;;;2.43;;
10281;SDS011;5186;59.472;18.048;2022-12-10T05:15:20;2.57;;;2.27;;
10281;SDS011;5186;59.472;18.048;2022-12-10T05:17:46;4.43;;;2.40;;
10281;SDS011;5186;59.472;18.048;2022-12-10T05:20:12;2.10;;;1.90;;
10281;SDS011;5186;59.472;18.048;2022-12-10T05:22:37;2.57;;;2.17;;
10281;SDS011;5186;59.472;18.048;2022-12-10T05:25:21;2.40;;;2.20;;
10281;SDS011;5186;59.472;18.048;2022-12-10T05:27:47;2.67;;;2.30;;
10281;SDS011;5186;59.472;18.048;2022-12-10T05:30:12;3.33;;;2.53;;
10281;SDS011;5186;59.472;18.048;2022-12-10T05:32:41;4.07;;;2.57;;
10281;SDS011;5186;59.472;18.048;2022-12-10T05:35:07;3.37;;;2.50;;
10281;SDS011;5186;59.472;18.048;2022-12-10T05:37:32;5.70;;;2.67;;
10281;SDS011;5186;59.472;18.048;2022-12-10T05:39:58;2.53;;;1.97;;
10281;SDS011;5186;59.472;18.048;2022-12-10T05:42:23;2.43;;;1.83;;
10281;SDS011;5186;59.472;18.048;2022-12-10T05:44:49;3.63;;;2.10;;
10281;SDS011;5186;59.472;18.048;2022-12-10T05:47:14;2.80;;;2.00;;
10281;SDS011;5186;59.472;18.048;2022-12-10T05:49:40;3.47;;;2.40;;
10281;SDS011;5186;59.472;18.048;2022-12-10T05:52:06;2.67;;;2.10;;
10281;SDS011;5186;59.472;18.048;2022-12-10T05:54:33;3.13;;;2.13;;
10281;SDS011;5186;59.472;18.048;2022-12-10T05:56:59;2.67;;;2.20;;
10281;SDS011;5186;59.472;18.048;2022-12-10T05:59:24;2.50;;;2.10;;
10281;SDS011;5186;59.472;18.048;2022-12-10T06:01:50;2.90;;;2.60;;
10281;SDS011;5186;59.472;18.048;2022-12-10T06:04:15;2.53;;;2.03;;
10281;SDS011;5186;59.472;18.048;2022-12-10T06:06:41;2.63;;;2.23;;
10281;SDS011;5186;59.472;18.048;2022-12-10T06:09:09;4.00;;;2.50;;
10281;SDS011;5186;59.472;18.048;2022-12-10T06:11:37;2.70;;;2.10;;
10281;SDS011;5186;59.472;18.048;2022-12-10T06:14:02;3.70;;;2.43;;
10281;SDS011;5186;59.472;18.048;2022-12-10T06:16:28;2.77;;;2.30;;
10281;SDS011;5186;59.472;18.048;2022-12-10T06:18:54;2.60;;;2.30;;
10281;SDS011;5186;59.472;18.048;2022-12-10T06:21:21;3.20;;;2.53;;
10281;SDS011;5186;59.472;18.048;2022-12-10T06:23:47;2.90;;;2.47;;
10281;SDS011;5186;59.472;18.048;2022-12-10T06:26:18;3.00;;;2.40;;
10281;SDS011;5186;59.472;18.048;2022-12-10T06:28:45;3.10;;;2.57;;
10281;SDS011;5186;59.472;18.048;2022-12-10T06:31:12;3.37;;;2.70;;
10281;SDS011;5186;59.472;18.048;2022-12-10T06:33:38;2.77;;;2.37;;
10281;SDS011;5186;59.472;18.048;2022-12-10T06:36:04;3.37;;;2.57;;
10281;SDS011;5186;59.472;18.048;2022-12-10T06:38:31;2.80;;;2.17;;
10281;SDS011;5186;59.472;18.048;2022-12-10T06:40:57;4.17;;;2.20;;
10281;SDS011;5186;59.472;18.048;2022-12-10T06:43:22;3.90;;;2.80;;
10281;SDS011;5186;59.472;18.048;2022-12-10T06:45:48;3.00;;;2.67;;
10281;SDS011;5186;59.472;18.048;2022-12-10T06:48:14;3.37;;;2.40;;
10281;SDS011;5186;59.472;18.048;2022-12-10T06:50:39;3.27;;;2.33;;
10281;SDS011;5186;59.472;18.048;2022-12-10T06:53:06;3.57;;;2.80;;
10281;SDS011;5186;59.472;18.048;2022-12-10T06:55:31;3.03;;;2.30;;
10281;SDS011;5186;59.472;18.048;2022-12-10T06:57:57;3.47;;;2.53;;
10281;SDS011;5186;59.472;18.048;2022-12-10T07:00:23;2.60;;;2.40;;
10281;SDS011;5186;59.472;18.048;2022-12-10T07:02:48;3.37;;;2.70;;
10281;SDS011;5186;59.472;18.048;2022-12-10T07:05:14;3.23;;;2.70;;
10281;SDS011;5186;59.472;18.048;2022-12-10T07:07:40;4.43;;;2.67;;
10281;SDS011;5186;59.472;18.048;2022-12-10T07:10:06;3.40;;;2.37;;
10281;SDS011;5186;59.472;18.048;2022-12-10T07:12:32;3.33;;;2.30;;
10281;SDS011;5186;59.472;18.048;2022-12-10T07:14:58;3.33;;;2.47;;
10281;SDS011;5186;59.472;18.048;2022-12-10T07:17:23;5.40;;;2.70;;
10281;SDS011;5186;59.472;18.048;2022-12-10T07:19:49;4.27;;;3.13;;
10281;SDS011;5186;59.472;18.048;2022-12-10T07:22:14;2.63;;;2.30;;
10281;SDS011;5186;59.472;18.048;2022-12-10T07:24:40;3.03;;;2.50;;
10281;SDS011;5186;59.472;18.048;2022-12-10T07:27:06;3.17;;;2.60;;
10281;SDS011;5186;59.472;18.048;2022-12-10T07:29:32;3.50;;;2.53;;
10281;SDS011;5186;59.472;18.048;2022-12-10T07:31:58;4.67;;;2.50;;
10281;SDS011;5186;59.472;18.048;2022-12-10T07:34:23;3.43;;;2.20;;
10281;SDS011;5186;59.472;18.048;2022-12-10T07:36:49;5.20;;;2.63;;
10281;SDS011;5186;59.472;18.048;2022-12-10T07:39:15;4.47;;;2.80;;
10281;SDS011;5186;59.472;18.048;2022-12-10T07:41:50;4.43;;;2.93;;
10281;SDS011;5186;59.472;18.048;2022-12-10T07:44:17;4.80;;;2.90;;
10281;SDS011;5186;59.472;18.048;2022-12-10T07:46:49;3.33;;;2.50;;
10281;SDS011;5186;59.472;18.048;2022-12-10T07:49:16;3.33;;;2.60;;
10281;SDS011;5186;59.472;18.048;2022-12-10T07:51:51;3.43;;;2.87;;
10281;SDS011;5186;59.472;18.048;2022-12-10T07:54:17;3.33;;;2.80;;
10281;SDS011;5186;59.472;18.048;2022-12-10T07:56:43;3.40;;;2.73;;
10281;SDS011;5186;59.472;18.048;2022-12-10T07:59:09;4.73;;;2.50;;
10281;SDS011;5186;59.472;18.048;2022-12-10T08:01:34;4.43;;;2.50;;
10281;SDS011;5186;59.472;18.048;2022-12-10T08:04:00;4.93;;;2.73;;
10281;SDS011;5186;59.472;18.048;2022-12-10T08:06:26;4.57;;;2.60;;
10281;SDS011;5186;59.472;18.048;2022-12-10T08:08:53;3.97;;;2.53;;
10281;SDS011;5186;59.472;18.048;2022-12-10T08:11:19;4.90;;;2.80;;
10281;SDS011;5186;59.472;18.048;2022-12-10T08:13:46;3.47;;;2.87;;
10281;SDS011;5186;59.472;18.048;2022-12-10T08:16:14;3.67;;;2.77;;
10281;SDS011;5186;59.472;18.048;2022-12-10T08:18:42;6.20;;;2.93;;
10281;SDS011;5186;59.472;18.048;2022-12-10T08:21:10;6.23;;;3.80;;
10281;SDS011;5186;59.472;18.048;2022-12-10T08:23:38;5.67;;;3.00;;
10281;SDS011;5186;59.472;18.048;2022-12-10T08:26:05;3.37;;;2.90;;
10281;SDS011;5186;59.472;18.048;2022-12-10T08:28:32;3.70;;;2.83;;
10281;SDS011;5186;59.472;18.048;2022-12-10T08:30:58;4.13;;;3.27;;
10281;SDS011;5186;59.472;18.048;2022-12-10T08:33:24;4.53;;;3.43;;
10281;SDS011;5186;59.472;18.048;2022-12-10T08:35:50;4.10;;;3.27;;
10281;SDS011;5186;59.472;18.048;2022-12-10T08:38:15;4.60;;;3.20;;
10281;SDS011;5186;59.472;18.048;2022-12-10T08:40:41;7.10;;;4.30;;
10281;SDS011;5186;59.472;18.048;2022-12-10T08:43:07;4.77;;;3.77;;
10281;SDS011;5186;59.472;18.048;2022-12-10T08:45:33;3.57;;;2.90;;
10281;SDS011;5186;59.472;18.048;2022-12-10T08:47:59;5.03;;;3.23;;
10281;SDS011;5186;59.472;18.048;2022-12-10T08:50:25;4.67;;;3.20;;
10281;SDS011;5186;59.472;18.048;2022-12-10T08:52:52;4.77;;;3.33;;
10281;SDS011;5186;59.472;18.048;2022-12-10T08:55:17;6.50;;;3.90;;
10281;SDS011;5186;59.472;18.048;2022-12-10T08:57:43;4.87;;;3.47;;
10281;SDS011;5186;59.472;18.048;2022-12-10T09:00:08;5.87;;;3.70;;
10281;SDS011;5186;59.472;18.048;2022-12-10T09:02:34;5.13;;;3.53;;
10281;SDS011;5186;59.472;18.048;2022-12-10T09:05:00;5.60;;;3.67;;
10281;SDS011;5186;59.472;18.048;2022-12-10T09:07:26;4.57;;;3.40;;
10281;SDS011;5186;59.472;18.048;2022-12-10T09:09:51;6.00;;;3.47;;
10281;SDS011;5186;59.472;18.048;2022-12-10T09:12:17;5.17;;;3.30;;
10281;SDS011;5186;59.472;18.048;2022-12-10T09:14:43;4.37;;;3.43;;
10281;SDS011;5186;59.472;18.048;2022-12-10T09:17:08;6.07;;;4.00;;
10281;SDS011;5186;59.472;18.048;2022-12-10T09:19:34;4.90;;;3.57;;
10281;SDS011;5186;59.472;18.048;2022-12-10T09:21:59;5.87;;;3.80;;
10281;SDS011;5186;59.472;18.048;2022-12-10T09:24:25;7.03;;;3.37;;
10281;SDS011;5186;59.472;18.048;2022-12-10T09:26:51;4.73;;;3.60;;
10281;SDS011;5186;59.472;18.048;2022-12-10T09:29:16;6.10;;;3.70;;
10281;SDS011;5186;59.472;18.048;2022-12-10T09:31:42;4.93;;;3.67;;
10281;SDS011;5186;59.472;18.048;2022-12-10T09:34:08;4.47;;;3.03;;
10281;SDS011;5186;59.472;18.048;2022-12-10T09:36:33;4.57;;;3.53;;
10281;SDS011;5186;59.472;18.048;2022-12-10T09:38:59;5.03;;;3.53;;
10281;SDS011;5186;59.472;18.048;2022-12-10T09:44:11;9.27;;;3.77;;
10281;SDS011;5186;59.472;18.048;2022-12-10T09:46:48;5.17;;;3.93;;
10281;SDS011;5186;59.472;18.048;2022-12-10T09:52:20;6.20;;;3.50;;
10281;SDS011;5186;59.472;18.048;2022-12-10T09:54:49;4.63;;;3.60;;
10281;SDS011;5186;59.472;18.048;2022-12-10T09:57:25;6.30;;;3.90;;
10281;SDS011;5186;59.472;18.048;2022-12-10T09:59:52;4.87;;;3.50;;
10281;SDS011;5186;59.472;18.048;2022-12-10T10:04:54;5.50;;;3.70;;
10281;SDS011;5186;59.472;18.048;2022-12-10T10:07:36;5.40;;;3.77;;
10281;SDS011;5186;59.472;18.048;2022-12-10T10:10:07;5.63;;;3.47;;
10281;SDS011;5186;59.472;18.048;2022-12-10T10:12:47;3.50;;;3.20;;
10281;SDS011;5186;59.472;18.048;2022-12-10T10:15:16;4.87;;;3.30;;
10281;SDS011;5186;59.472;18.048;2022-12-10T10:17:44;6.70;;;4.10;;
10281;SDS011;5186;59.472;18.048;2022-12-10T10:20:12;10.90;;;6.30;;
10281;SDS011;5186;59.472;18.048;2022-12-10T10:22:39;6.27;;;4.30;;
10281;SDS011;5186;59.472;18.048;2022-12-10T10:25:06;15.30;;;7.70;;
10281;SDS011;5186;59.472;18.048;2022-12-10T10:27:42;4.77;;;3.57;;
10281;SDS011;5186;59.472;18.048;2022-12-10T10:30:13;5.37;;;3.70;;
10281;SDS011;5186;59.472;18.048;2022-12-10T10:35:09;4.50;;;3.43;;
10281;SDS011;5186;59.472;18.048;2022-12-10T10:37:48;3.67;;;2.90;;
10281;SDS011;5186;59.472;18.048;2022-12-10T10:40:25;4.87;;;3.27;;
10281;SDS011;5186;59.472;18.048;2022-12-10T10:42:57;5.67;;;3.03;;
10281;SDS011;5186;59.472;18.048;2022-12-10T10:45:39;4.80;;;3.37;;
10281;SDS011;5186;59.472;18.048;2022-12-10T10:48:13;4.43;;;3.30;;
10281;SDS011;5186;59.472;18.048;2022-12-10T10:50:48;4.10;;;3.47;;
10281;SDS011;5186;59.472;18.048;2022-12-10T10:53:23;6.77;;;4.00;;
10281;SDS011;5186;59.472;18.048;2022-12-10T10:55:53;3.33;;;2.80;;
10281;SDS011;5186;59.472;18.048;2022-12-10T10:58:20;6.90;;;3.50;;
10281;SDS011;5186;59.472;18.048;2022-12-10T11:01:04;5.30;;;3.30;;
10281;SDS011;5186;59.472;18.048;2022-12-10T11:03:33;5.07;;;3.80;;
10281;SDS011;5186;59.472;18.048;2022-12-10T11:06:01;5.17;;;3.57;;
10281;SDS011;5186;59.472;18.048;2022-12-10T11:08:31;4.37;;;3.23;;
10281;SDS011;5186;59.472;18.048;2022-12-10T11:11:04;7.13;;;3.47;;
10281;SDS011;5186;59.472;18.048;2022-12-10T11:13:37;4.83;;;3.37;;
10281;SDS011;5186;59.472;18.048;2022-12-10T11:16:23;7.07;;;3.87;;
10281;SDS011;5186;59.472;18.048;2022-12-10T11:21:27;5.03;;;3.67;;
10281;SDS011;5186;59.472;18.048;2022-12-10T11:23:55;5.13;;;3.27;;
10281;SDS011;5186;59.472;18.048;2022-12-10T11:29:49;4.77;;;3.23;;
10281;SDS011;5186;59.472;18.048;2022-12-10T11:40:26;4.20;;;3.50;;
10281;SDS011;5186;59.472;18.048;2022-12-10T11:43:24;4.70;;;3.37;;
10281;SDS011;5186;59.472;18.048;2022-12-10T11:49:23;7.23;;;2.93;;
10281;SDS011;5186;59.472;18.048;2022-12-10T11:52:28;3.87;;;3.00;;
10281;SDS011;5186;59.472;18.048;2022-12-10T11:57:47;5.47;;;3.20;;
10281;SDS011;5186;59.472;18.048;2022-12-10T12:00:25;4.67;;;3.20;;
10281;SDS011;5186;59.472;18.048;2022-12-10T12:05:48;6.67;;;3.17;;
10281;SDS011;5186;59.472;18.048;2022-12-10T12:11:29;5.50;;;3.37;;
10281;SDS011;5186;59.472;18.048;2022-12-10T12:17:00;4.73;;;3.10;;
10281;SDS011;5186;59.472;18.048;2022-12-10T12:19:43;4.43;;;2.77;;
10281;SDS011;5186;59.472;18.048;2022-12-10T12:22:26;3.77;;;2.70;;
10281;SDS011;5186;59.472;18.048;2022-12-10T12:24:59;3.97;;;2.83;;
10281;SDS011;5186;59.472;18.048;2022-12-10T12:30:04;4.30;;;2.60;;
10281;SDS011;5186;59.472;18.048;2022-12-10T12:32:45;4.40;;;2.50;;
10281;SDS011;5186;59.472;18.048;2022-12-10T12:35:13;3.67;;;2.70;;
10281;SDS011;5186;59.472;18.048;2022-12-10T12:38:23;3.30;;;2.63;;
10281;SDS011;5186;59.472;18.048;2022-12-10T12:40:59;5.73;;;3.07;;
10281;SDS011;5186;59.472;18.048;2022-12-10T12:46:10;5.83;;;2.80;;
10281;SDS011;5186;59.472;18.048;2022-12-10T12:48:46;4.53;;;2.60;;
10281;SDS011;5186;59.472;18.048;2022-12-10T12:51:19;4.77;;;2.90;;
10281;SDS011;5186;59.472;18.048;2022-12-10T12:54:22;3.77;;;2.70;;
10281;SDS011;5186;59.472;18.048;2022-12-10T12:57:06;4.50;;;2.90;;
10281;SDS011;5186;59.472;18.048;2022-12-10T12:59:55;4.93;;;3.00;;
10281;SDS011;5186;59.472;18.048;2022-12-10T13:04:59;4.90;;;2.63;;
10281;SDS011;5186;59.472;18.048;2022-12-10T13:12:50;3.13;;;2.50;;
10281;SDS011;5186;59.472;18.048;2022-12-10T13:15:34;3.73;;;2.70;;
10281;SDS011;5186;59.472;18.048;2022-12-10T13:23:30;4.80;;;2.60;;
10281;SDS011;5186;59.472;18.048;2022-12-10T13:25:59;4.20;;;2.50;;
10281;SDS011;5186;59.472;18.048;2022-12-10T13:28:27;5.30;;;2.50;;
10281;SDS011;5186;59.472;18.048;2022-12-10T13:31:06;2.80;;;2.30;;
10281;SDS011;5186;59.472;18.048;2022-12-10T13:36:27;4.37;;;2.50;;
10281;SDS011;5186;59.472;18.048;2022-12-10T13:39:12;3.53;;;2.47;;
10281;SDS011;5186;59.472;18.048;2022-12-10T13:50:00;7.00;;;2.33;;
10281;SDS011;5186;59.472;18.048;2022-12-10T14:03:58;7.07;;;6.47;;
10281;SDS011;5186;59.472;18.048;2022-12-10T14:06:36;5.47;;;4.80;;
10281;SDS011;5186;59.472;18.048;2022-12-10T14:11:31;4.73;;;3.00;;
10281;SDS011;5186;59.472;18.048;2022-12-10T14:14:02;3.77;;;3.10;;
10281;SDS011;5186;59.472;18.048;2022-12-10T14:16:31;3.30;;;2.37;;
10281;SDS011;5186;59.472;18.048;2022-12-10T14:18:59;2.80;;;2.10;;
10281;SDS011;5186;59.472;18.048;2022-12-10T14:21:34;6.03;;;4.70;;
10281;SDS011;5186;59.472;18.048;2022-12-10T14:24:04;4.13;;;2.20;;
10281;SDS011;5186;59.472;18.048;2022-12-10T14:26:35;3.67;;;2.37;;
10281;SDS011;5186;59.472;18.048;2022-12-10T14:31:44;3.70;;;2.73;;
10281;SDS011;5186;59.472;18.048;2022-12-10T14:34:14;3.87;;;2.30;;
10281;SDS011;5186;59.472;18.048;2022-12-10T14:36:49;2.77;;;2.20;;
10281;SDS011;5186;59.472;18.048;2022-12-10T14:39:17;3.13;;;2.50;;
10281;SDS011;5186;59.472;18.048;2022-12-10T14:41:46;2.47;;;2.20;;
10281;SDS011;5186;59.472;18.048;2022-12-10T14:44:15;4.30;;;2.90;;
10281;SDS011;5186;59.472;18.048;2022-12-10T14:46:42;3.27;;;2.60;;
10281;SDS011;5186;59.472;18.048;2022-12-10T14:49:08;3.60;;;2.50;;
10281;SDS011;5186;59.472;18.048;2022-12-10T14:51:41;3.50;;;2.50;;
10281;SDS011;5186;59.472;18.048;2022-12-10T14:54:22;5.43;;;2.77;;
10281;SDS011;5186;59.472;18.048;2022-12-10T14:56:50;2.63;;;1.97;;
10281;SDS011;5186;59.472;18.048;2022-12-10T14:59:25;4.97;;;2.40;;
10281;SDS011;5186;59.472;18.048;2022-12-10T15:02:00;4.33;;;2.50;;
10281;SDS011;5186;59.472;18.048;2022-12-10T15:04:52;2.63;;;2.23;;
10281;SDS011;5186;59.472;18.048;2022-12-10T15:07:22;4.10;;;1.97;;
10281;SDS011;5186;59.472;18.048;2022-12-10T15:09:50;3.20;;;1.80;;
10281;SDS011;5186;59.472;18.048;2022-12-10T15:12:23;3.63;;;2.00;;
10281;SDS011;5186;59.472;18.048;2022-12-10T15:14:54;4.33;;;2.53;;
10281;SDS011;5186;59.472;18.048;2022-12-10T15:17:35;3.20;;;2.23;;
10281;SDS011;5186;59.472;18.048;2022-12-10T15:20:09;3.20;;;2.30;;
10281;SDS011;5186;59.472;18.048;2022-12-10T15:22:42;2.80;;;2.20;;
10281;SDS011;5186;59.472;18.048;2022-12-10T15:25:19;3.83;;;2.13;;
10281;SDS011;5186;59.472;18.048;2022-12-10T15:28:00;2.53;;;1.90;;
10281;SDS011;5186;59.472;18.048;2022-12-10T15:30:38;2.47;;;1.80;;
10281;SDS011;5186;59.472;18.048;2022-12-10T15:33:14;2.53;;;1.80;;
10281;SDS011;5186;59.472;18.048;2022-12-10T15:36:05;3.10;;;1.87;;
10281;SDS011;5186;59.472;18.048;2022-12-10T15:38:39;3.27;;;1.83;;
10281;SDS011;5186;59.472;18.048;2022-12-10T15:41:21;3.13;;;2.00;;
10281;SDS011;5186;59.472;18.048;2022-12-10T15:43:51;3.37;;;2.00;;
10281;SDS011;5186;59.472;18.048;2022-12-10T15:46:20;2.30;;;1.87;;
10281;SDS011;5186;59.472;18.048;2022-12-10T15:48:45;2.87;;;2.03;;
10281;SDS011;5186;59.472;18.048;2022-12-10T15:51:11;2.07;;;1.87;;
10281;SDS011;5186;59.472;18.048;2022-12-10T15:53:37;2.60;;;1.90;;
10281;SDS011;5186;59.472;18.048;2022-12-10T15:56:03;2.80;;;2.00;;
10281;SDS011;5186;59.472;18.048;2022-12-10T15:58:29;2.40;;;1.67;;
10281;SDS011;5186;59.472;18.048;2022-12-10T16:00:55;2.70;;;1.70;;
10281;SDS011;5186;59.472;18.048;2022-12-10T16:03:27;2.70;;;1.87;;
10281;SDS011;5186;59.472;18.048;2022-12-10T16:05:53;3.20;;;1.90;;
10281;SDS011;5186;59.472;18.048;2022-12-10T16:08:20;2.97;;;1.77;;
10281;SDS011;5186;59.472;18.048;2022-12-10T16:10:48;3.10;;;1.97;;
10281;SDS011;5186;59.472;18.048;2022-12-10T16:13:19;3.47;;;1.80;;
10281;SDS011;5186;59.472;18.048;2022-12-10T16:15:54;3.13;;;2.10;;
10281;SDS011;5186;59.472;18.048;2022-12-10T16:18:23;2.37;;;1.67;;
10281;SDS011;5186;59.472;18.048;2022-12-10T16:20:49;2.83;;;2.00;;
10281;SDS011;5186;59.472;18.048;2022-12-10T16:23:15;3.60;;;1.87;;
10281;SDS011;5186;59.472;18.048;2022-12-10T16:25:41;2.83;;;2.27;;
10281;SDS011;5186;59.472;18.048;2022-12-10T16:28:16;3.73;;;1.73;;
10281;SDS011;5186;59.472;18.048;2022-12-10T16:30:44;3.90;;;2.20;;
10281;SDS011;5186;59.472;18.048;2022-12-10T16:33:12;3.40;;;2.00;;
10281;SDS011;5186;59.472;18.048;2022-12-10T16:35:38;3.93;;;2.07;;
10281;SDS011;5186;59.472;18.048;2022-12-10T16:38:03;2.57;;;1.80;;
10281;SDS011;5186;59.472;18.048;2022-12-10T16:40:29;3.70;;;2.20;;
10281;SDS011;5186;59.472;18.048;2022-12-10T16:42:55;2.50;;;1.87;;